Terminal Aerodrome Forecast
Issued by NWS

Home | Current Version | Previous Version | Text Only | Print | Product List | Glossary On
Versions: 1 2 3 4 5 6 7 8 9 10 11 12 13 14 15 16 17 18
023
FTUS42 KMLB 261131
TAFTIX
TAF
KTIX 261131Z 2612/2712 30004KT P6SM FEW025 SCT250
     FM261400 33005KT P6SM SCT030 SCT250
     FM261800 07010KT P6SM SCT035
     FM262300 08004KT P6SM FEW040 SCT250=

USA.gov is the U.S. government's official web portal to all federal, state and local government web resources and services.